Time;durP1;ratioP1;P1;durP2;ratioP2;P2;SDS_P1;SDS_P2;PMS_P1;PMS_P2;Temp;Humidity;BMP_temperature;BMP_pressure;BME280_temperature;BME280_humidity;BME280_pressure;Samples;Min_cycle;Max_cycle;Signal;HPM_P1;HPM_P2
2022/05/05 00:01:35;;;;;;;21.10;16.27;;;;;;;14.15;86.39;100562.81;5043789;28;20165;-71
2022/05/05 00:04:03;;;;;;;18.35;16.25;;;;;;;14.15;86.39;100564.63;5037994;28;20144;-71
2022/05/05 00:06:30;;;;;;;22.08;17.88;;;;;;;14.09;86.27;100552.53;5034120;28;20231;-74
2022/05/05 00:08:56;;;;;;;20.45;16.65;;;;;;;14.14;85.94;100560.25;5038825;28;20052;-73
2022/05/05 00:14:27;;;;;;;20.13;17.10;;;;;;;13.94;85.71;100526.78;5046353;28;20111;-77
2022/05/05 00:16:57;;;;;;;22.17;18.02;;;;;;;14.12;85.76;100555.00;5050889;28;20473;-69
2022/05/05 00:19:24;;;;;;;22.52;17.38;;;;;;;14.07;85.99;100548.22;5040039;28;20128;-70
2022/05/05 00:21:51;;;;;;;19.20;17.10;;;;;;;14.11;86.35;100558.63;5039623;28;20471;-70
2022/05/05 00:24:19;;;;;;;19.92;16.92;;;;;;;14.09;85.85;100563.16;5041600;28;20498;-69
2022/05/05 00:26:46;;;;;;;20.58;17.00;;;;;;;14.04;85.57;100543.94;5041241;28;20041;-70
2022/05/05 00:29:13;;;;;;;21.23;16.80;;;;;;;14.05;85.62;100562.47;5045259;28;20053;-72
2022/05/05 00:31:40;;;;;;;19.45;16.23;;;;;;;14.05;85.84;100556.31;5037889;28;20115;-70
2022/05/05 00:34:07;;;;;;;19.25;17.00;;;;;;;14.00;85.72;100545.09;5041074;28;20045;-70
2022/05/05 00:36:34;;;;;;;22.92;17.60;;;;;;;13.92;85.40;100553.50;5044976;28;20045;-71
2022/05/05 00:39:02;;;;;;;20.50;18.27;;;;;;;13.86;85.72;100550.31;5025492;28;20417;-71
2022/05/05 00:41:37;;;;;;;22.10;18.58;;;;;;;13.83;86.18;100551.38;5044768;28;20480;-69
2022/05/05 00:44:05;;;;;;;20.67;17.70;;;;;;;13.76;86.10;100539.38;5040821;28;20049;-70
2022/05/05 00:46:32;;;;;;;21.52;17.83;;;;;;;13.73;86.34;100533.34;5047206;28;20059;-72
2022/05/05 00:49:00;;;;;;;21.33;17.83;;;;;;;13.86;86.49;100556.50;5038141;28;20421;-70
2022/05/05 00:51:27;;;;;;;19.98;16.90;;;;;;;13.51;86.28;100483.19;5035680;28;20100;-75
2022/05/05 00:53:57;;;;;;;20.70;17.17;;;;;;;13.85;85.80;100551.31;5044099;28;20052;-73
2022/05/05 00:56:24;;;;;;;21.50;15.60;;;;;;;13.66;85.21;100528.41;5045726;28;20469;-70
2022/05/05 00:58:56;;;;;;;20.08;15.80;;;;;;;13.78;84.86;100555.25;5042433;28;20068;-71
2022/05/05 01:01:30;;;;;;;23.02;17.98;;;;;;;13.77;84.76;100556.19;5041539;28;20743;-70
2022/05/05 01:03:57;;;;;;;23.05;17.25;;;;;;;13.71;85.12;100562.72;5033746;28;20045;-73
2022/05/05 01:06:25;;;;;;;22.13;18.02;;;;;;;13.70;85.18;100567.19;5039870;28;20557;-72
2022/05/05 01:08:52;;;;;;;23.35;17.92;;;;;;;13.65;85.50;100558.63;5041813;28;20072;-70
2022/05/05 01:11:18;;;;;;;22.67;17.60;;;;;;;13.61;86.15;100565.06;5045082;28;20045;-71
2022/05/05 01:13:45;;;;;;;21.20;16.67;;;;;;;13.63;85.68;100564.97;5043501;28;20052;-69
2022/05/05 01:16:12;;;;;;;22.17;17.60;;;;;;;13.62;85.29;100564.13;5044238;28;20544;-74
2022/05/05 01:18:39;;;;;;;20.25;17.65;;;;;;;13.60;85.14;100560.69;5037906;28;20050;-70
2022/05/05 01:21:10;;;;;;;18.83;16.30;;;;;;;13.64;84.86;100567.53;5045270;28;20126;-75
2022/05/05 01:23:37;;;;;;;;;;;;;;;13.65;85.19;100566.59;5042521;28;20187;-71
2022/05/05 01:28:49;;;;;;;23.50;17.25;;;;;;;13.70;84.76;100558.34;5039723;28;20061;-73
2022/05/05 01:31:16;;;;;;;24.15;17.13;;;;;;;13.77;84.03;100562.38;5044122;28;20132;-70
2022/05/05 01:33:43;;;;;;;19.80;16.67;;;;;;;13.64;83.73;100540.94;5044093;28;20045;-70
2022/05/05 01:36:11;;;;;;;20.88;16.70;;;;;;;13.74;83.74;100559.88;5046392;28;20180;-72
2022/05/05 01:38:40;;;;;;;19.08;17.00;;;;;;;13.69;83.76;100557.47;5044134;28;20059;-70
2022/05/05 01:41:12;;;;;;;20.60;16.98;;;;;;;13.69;83.85;100564.63;5038819;28;20467;-74
2022/05/05 01:43:42;;;;;;;23.83;17.13;;;;;;;13.61;84.12;100561.53;5042672;28;20049;-69
2022/05/05 01:46:09;;;;;;;21.85;17.95;;;;;;;13.58;84.08;100567.88;5032974;28;20144;-72
2022/05/05 01:48:36;;;;;;;22.73;17.98;;;;;;;13.44;84.59;100553.66;5037607;28;20068;-71
2022/05/05 01:51:04;;;;;;;22.67;17.98;;;;;;;13.53;85.31;100577.09;5046732;28;20052;-70
2022/05/05 01:53:37;;;;;;;23.67;18.63;;;;;;;13.47;85.43;100570.31;5044797;28;20501;-70
2022/05/05 01:56:11;;;;;;;21.48;17.73;;;;;;;13.45;85.63;100566.88;5039967;28;20047;-70
2022/05/05 01:58:41;;;;;;;23.67;19.10;;;;;;;13.42;85.78;100567.03;5028250;28;20060;-70
2022/05/05 02:01:10;;;;;;;22.02;17.83;;;;;;;13.48;85.90;100582.66;5039511;28;20667;-72
2022/05/05 02:03:36;;;;;;;24.55;18.80;;;;;;;13.52;86.02;100586.88;5037978;28;20048;-69
2022/05/05 02:06:04;;;;;;;27.27;18.55;;;;;;;13.50;85.67;100583.44;5040316;28;20049;-70
2022/05/05 02:08:32;;;;;;;24.15;18.52;;;;;;;13.38;85.42;100557.50;5046916;28;20477;-70
2022/05/05 02:10:59;;;;;;;22.13;19.13;;;;;;;13.36;84.51;100556.75;5040162;28;20078;-75
2022/05/05 02:13:25;;;;;;;23.60;18.42;;;;;;;13.52;83.85;100586.88;5043316;28;20102;-72
2022/05/05 02:15:52;;;;;;;24.48;19.00;;;;;;;13.50;83.68;100588.75;5047053;28;20103;-71
2022/05/05 02:18:18;;;;;;;24.48;18.48;;;;;;;13.44;83.30;100591.75;5041622;28;20045;-70
2022/05/05 02:20:45;;;;;;;22.40;18.00;;;;;;;13.47;82.76;100590.72;5043927;28;20049;-70
2022/05/05 02:23:12;;;;;;;23.65;18.40;;;;;;;13.40;79.91;100573.38;5045673;28;20463;-70
2022/05/05 02:25:39;;;;;;;21.52;17.30;;;;;;;13.47;79.23;100596.91;5043611;28;20115;-70
2022/05/05 02:28:06;;;;;;;21.55;17.98;;;;;;;13.45;79.84;100598.78;5050245;28;20040;-72
2022/05/05 02:30:33;;;;;;;22.38;18.60;;;;;;;13.43;79.49;100592.69;5046992;28;20448;-70
2022/05/05 02:33:00;;;;;;;20.25;17.17;;;;;;;13.43;78.64;100584.72;5046958;28;20483;-72
2022/05/05 02:35:27;;;;;;;20.80;16.98;;;;;;;13.46;78.04;100586.34;5042911;28;20061;-71
2022/05/05 02:40:39;;;;;;;20.05;17.00;;;;;;;13.40;77.70;100560.94;5044709;28;20516;-76
2022/05/05 02:43:06;;;;;;;22.95;17.05;;;;;;;13.56;77.04;100579.56;5043505;28;20427;-70
2022/05/05 02:45:33;;;;;;;23.75;17.67;;;;;;;13.44;76.67;100558.97;5034678;28;20041;-70
2022/05/05 02:48:00;;;;;;;21.25;17.38;;;;;;;13.42;76.35;100559.06;5045232;28;20053;-69
2022/05/05 02:50:27;;;;;;;20.38;17.23;;;;;;;13.42;77.18;100559.06;5047654;28;20656;-69
2022/05/05 02:52:54;;;;;;;23.38;17.58;;;;;;;13.52;77.37;100580.69;5045979;28;20045;-73
2022/05/05 02:55:22;;;;;;;23.60;17.15;;;;;;;13.47;75.26;100582.75;5040346;28;20213;-69
2022/05/05 02:57:49;;;;;;;22.10;16.50;;;;;;;13.41;74.61;100578.59;5049859;28;20497;-70
2022/05/05 03:00:16;;;;;;;21.80;15.43;;;;;;;13.39;73.85;100585.81;5047481;28;20059;-71
2022/05/05 03:02:44;;;;;;;22.42;15.18;;;;;;;13.23;71.66;100569.84;5046152;28;20115;-70
2022/05/05 03:05:13;;;;;;;17.27;14.05;;;;;;;13.22;72.11;100569.97;5036554;28;20390;-71
2022/05/05 03:07:41;;;;;;;20.35;13.40;;;;;;;13.30;70.30;100586.34;5044055;28;20064;-75
2022/05/05 03:10:10;;;;;;;17.27;12.48;;;;;;;13.28;69.47;100596.19;5047000;28;20076;-69
2022/05/05 03:12:36;;;;;;;20.08;12.80;;;;;;;13.30;68.87;100602.28;5023302;28;20125;-70
2022/05/05 03:15:03;;;;;;;15.57;11.38;;;;;;;13.28;68.24;100606.84;5044446;28;20109;-72
2022/05/05 03:17:31;;;;;;;15.43;11.98;;;;;;;13.18;67.91;100587.88;5044138;28;20138;-69
2022/05/05 03:19:58;;;;;;;16.88;11.38;;;;;;;13.19;67.54;100586.06;5047141;28;20052;-71
2022/05/05 03:22:24;;;;;;;18.10;11.05;;;;;;;13.30;67.37;100610.28;5038446;28;20055;-70
2022/05/05 03:24:51;;;;;;;13.65;10.60;;;;;;;13.30;67.15;100607.63;5043710;28;20547;-72
2022/05/05 03:27:18;;;;;;;15.30;11.07;;;;;;;13.31;66.80;100609.34;5047797;28;20082;-70
2022/05/05 03:29:44;;;;;;;18.33;10.95;;;;;;;13.33;66.40;100602.13;5042105;28;20057;-71
2022/05/05 03:32:11;;;;;;;20.63;9.77;;;;;;;13.36;66.39;100607.28;5044151;28;20067;-75
2022/05/05 03:34:38;;;;;;;14.43;9.70;;;;;;;13.41;65.51;100610.53;5044286;28;20477;-70
2022/05/05 03:37:04;;;;;;;14.13;9.80;;;;;;;13.39;65.79;100612.41;5045058;28;20132;-69
2022/05/05 03:39:31;;;;;;;15.30;9.50;;;;;;;13.33;65.12;100615.44;5046329;28;20055;-70
2022/05/05 03:41:57;;;;;;;12.23;9.48;;;;;;;13.32;65.87;100619.03;5047001;28;20087;-69
2022/05/05 03:44:24;;;;;;;14.32;9.95;;;;;;;13.25;66.10;100621.16;5043596;28;21143;-70
2022/05/05 03:46:51;;;;;;;13.18;9.73;;;;;;;13.27;66.21;100626.38;5046732;28;20044;-73
2022/05/05 03:49:18;;;;;;;14.40;9.68;;;;;;;13.29;65.12;100621.84;5043062;28;20588;-70
2022/05/05 03:51:44;;;;;;;12.32;9.07;;;;;;;13.26;65.48;100620.22;5045125;28;20049;-70
2022/05/05 03:54:11;;;;;;;13.57;9.38;;;;;;;13.23;65.65;100620.38;5042251;28;20131;-72
2022/05/05 03:56:38;;;;;;;12.13;9.68;;;;;;;13.22;65.25;100623.16;5043561;28;20054;-71
2022/05/05 03:59:06;;;;;;;12.65;9.63;;;;;;;13.23;65.22;100627.50;5042772;28;20592;-73
2022/05/05 04:01:32;;;;;;;14.15;8.85;;;;;;;13.19;65.99;100633.94;5045298;28;20044;-71
2022/05/05 04:03:59;;;;;;;14.20;9.63;;;;;;;12.98;67.37;100612.84;5039779;28;20053;-69
2022/05/05 04:06:26;;;;;;;15.48;9.75;;;;;;;12.86;67.67;100626.78;5039498;28;20164;-71
2022/05/05 04:08:52;;;;;;;16.35;10.18;;;;;;;12.77;68.74;100637.88;5046320;28;20079;-70
2022/05/05 04:11:19;;;;;;;15.43;9.80;;;;;;;12.50;70.31;100620.72;5042726;28;20045;-69
2022/05/05 04:13:46;;;;;;;14.45;9.68;;;;;;;12.25;72.08;100632.59;5033624;28;20126;-69
2022/05/05 04:16:13;;;;;;;15.73;10.48;;;;;;;12.15;74.83;100647.25;5037978;28;20056;-71
2022/05/05 04:18:40;;;;;;;15.65;11.27;;;;;;;12.06;76.72;100654.81;5041080;28;20049;-68
2022/05/05 04:21:07;;;;;;;15.20;11.68;;;;;;;12.00;79.32;100661.25;5040337;28;20052;-71
2022/05/05 04:23:34;;;;;;;22.52;12.98;;;;;;;11.96;82.13;100658.84;5041134;28;20063;-68
2022/05/05 04:26:10;;;;;;;18.60;12.38;;;;;;;11.93;83.31;100667.81;5043903;28;20067;-69
2022/05/05 04:28:36;;;;;;;15.93;12.20;;;;;;;11.71;83.94;100641.41;5041950;28;20124;-69
2022/05/05 04:31:03;;;;;;;18.33;13.15;;;;;;;11.78;85.93;100665.91;5034882;28;20094;-69
2022/05/05 04:33:30;;;;;;;22.00;14.57;;;;;;;11.74;87.91;100664.28;5038068;28;20057;-69
2022/05/05 04:35:56;;;;;;;21.73;14.38;;;;;;;11.69;89.13;100660.97;5042445;28;20445;-69
2022/05/05 04:38:23;;;;;;;22.67;15.70;;;;;;;11.46;90.45;100644.38;5038954;28;20069;-68
2022/05/05 04:40:50;;;;;;;21.48;14.80;;;;;;;11.55;91.66;100669.59;5044280;28;20772;-70
2022/05/05 04:43:17;;;;;;;22.80;15.75;;;;;;;11.54;92.22;100676.69;5042858;28;20489;-68
2022/05/05 04:45:43;;;;;;;22.08;16.55;;;;;;;11.43;92.94;100670.16;5040612;28;20111;-68
2022/05/05 04:48:10;;;;;;;23.70;16.88;;;;;;;11.24;93.16;100649.78;5037677;28;20135;-71
2022/05/05 04:50:37;;;;;;;26.50;16.35;;;;;;;11.41;95.71;100680.84;5042175;28;20267;-71
2022/05/05 04:53:04;;;;;;;28.70;17.65;;;;;;;11.24;95.67;100654.22;5034931;28;20574;-72
2022/05/05 04:55:30;;;;;;;23.30;16.83;;;;;;;11.45;95.82;100694.81;5046114;28;20053;-70
2022/05/05 04:57:57;;;;;;;24.33;16.63;;;;;;;11.41;96.30;100687.94;5042318;28;20056;-69
2022/05/05 05:00:24;;;;;;;23.33;16.95;;;;;;;11.35;95.86;100686.41;5041250;28;20461;-70
2022/05/05 05:02:51;;;;;;;23.98;17.33;;;;;;;11.38;96.14;100688.94;5042678;28;20095;-71
2022/05/05 05:05:18;;;;;;;26.73;18.23;;;;;;;11.29;95.74;100673.44;5043816;28;20136;-68
2022/05/05 05:07:44;;;;;;;26.00;18.13;;;;;;;11.42;95.84;100693.16;5046373;28;20061;-69
2022/05/05 05:10:11;;;;;;;22.90;17.95;;;;;;;11.35;95.27;100697.00;5046891;28;20128;-68
2022/05/05 05:12:38;;;;;;;23.40;16.92;;;;;;;11.34;94.54;100681.16;5043370;28;20148;-68
2022/05/05 05:15:05;;;;;;;26.17;17.13;;;;;;;11.41;94.16;100694.09;5045531;28;20088;-67
2022/05/05 05:17:32;;;;;;;27.13;17.35;;;;;;;11.39;93.98;100695.97;5041299;28;20377;-68
2022/05/05 05:19:59;;;;;;;28.25;18.00;;;;;;;11.45;94.20;100714.25;5046501;28;20064;-68
2022/05/05 05:22:26;;;;;;;27.00;18.17;;;;;;;11.45;96.00;100719.56;5045289;28;20057;-69
2022/05/05 05:24:53;;;;;;;22.70;15.20;;;;;;;11.37;94.37;100721.66;5047127;28;20342;-69
2022/05/05 05:27:20;;;;;;;19.98;15.15;;;;;;;11.33;91.92;100728.06;5041155;28;20050;-71
2022/05/05 05:29:46;;;;;;;22.00;14.88;;;;;;;11.32;91.08;100725.47;5044092;28;20128;-68
2022/05/05 05:32:13;;;;;;;21.45;15.85;;;;;;;11.36;92.67;100724.38;5039930;28;20053;-68
2022/05/05 05:34:40;;;;;;;26.35;20.40;;;;;;;11.42;93.72;100730.28;5040592;28;20078;-70
2022/05/05 05:37:07;;;;;;;20.15;14.88;;;;;;;11.45;92.60;100722.22;5044635;28;20055;-71
2022/05/05 05:39:33;;;;;;;23.27;15.52;;;;;;;11.55;91.31;100733.25;5042291;28;20082;-69
2022/05/05 05:42:00;;;;;;;22.33;14.45;;;;;;;11.64;90.76;100721.38;5043353;28;20111;-68
2022/05/05 05:44:27;;;;;;;22.30;15.10;;;;;;;11.70;89.12;100721.94;5037551;28;20513;-75
2022/05/05 05:46:54;;;;;;;18.45;14.07;;;;;;;11.80;89.19;100725.06;5037405;28;20132;-69
2022/05/05 05:49:20;;;;;;;22.38;15.30;;;;;;;11.82;89.82;100726.69;5040414;28;20052;-69
2022/05/05 05:51:47;;;;;;;21.27;14.85;;;;;;;11.90;89.88;100731.66;5035173;28;20515;-69
2022/05/05 05:54:14;;;;;;;22.80;14.50;;;;;;;11.90;90.29;100729.88;5035587;28;20055;-74
2022/05/05 05:56:40;;;;;;;20.65;15.55;;;;;;;12.06;90.73;100740.63;5032895;28;20504;-70
2022/05/05 05:59:07;;;;;;;21.00;14.52;;;;;;;12.14;89.63;100743.75;5036955;28;20049;-70
2022/05/05 06:04:19;;;;;;;20.55;14.25;;;;;;;12.31;86.67;100756.22;5033266;28;20061;-69
2022/05/05 06:06:46;;;;;;;21.50;14.77;;;;;;;12.38;86.92;100751.47;5018018;28;20482;-70
2022/05/05 06:09:13;;;;;;;24.70;15.05;;;;;;;12.38;85.99;100756.78;5016485;28;20084;-69
2022/05/05 06:11:40;;;;;;;19.30;13.77;;;;;;;12.36;84.96;100756.00;5022522;28;20464;-70
2022/05/05 06:14:07;;;;;;;20.80;14.40;;;;;;;12.40;84.07;100754.94;5002313;28;20053;-71
2022/05/05 06:16:34;;;;;;;24.90;15.00;;;;;;;12.47;84.46;100772.25;5015988;28;20053;-69
2022/05/05 06:19:00;;;;;;;20.42;13.13;;;;;;;12.40;83.31;100745.16;5015145;28;20049;-69
2022/05/05 06:21:27;;;;;;;19.17;13.88;;;;;;;12.59;82.63;100771.69;5020222;28;20498;-69
2022/05/05 06:23:54;;;;;;;20.23;13.52;;;;;;;12.63;83.29;100766.13;5017184;28;20156;-69
2022/05/05 06:26:21;;;;;;;20.63;14.43;;;;;;;12.63;83.50;100766.13;5019709;28;20050;-70
2022/05/05 06:28:48;;;;;;;21.48;15.32;;;;;;;12.68;84.32;100771.22;5004356;28;20064;-69
2022/05/05 06:31:16;;;;;;;21.67;13.95;;;;;;;12.72;84.08;100779.91;5011297;28;20083;-69
2022/05/05 06:33:43;;;;;;;20.00;14.40;;;;;;;12.67;83.11;100790.75;5016582;28;20077;-69
2022/05/05 06:36:09;;;;;;;20.45;13.80;;;;;;;12.60;82.54;100792.84;5018593;28;20483;-73
2022/05/05 06:38:36;;;;;;;26.15;16.10;;;;;;;12.60;84.39;100797.28;5009602;28;20058;-73
2022/05/05 06:41:03;;;;;;;19.27;13.80;;;;;;;12.54;84.15;100794.94;5020250;28;20773;-69
2022/05/05 06:43:30;;;;;;;17.70;13.27;;;;;;;12.59;84.43;100795.59;5023438;28;20073;-70
2022/05/05 06:45:57;;;;;;;20.40;14.05;;;;;;;12.61;84.93;100794.56;5018403;28;20450;-72
2022/05/05 06:48:24;;;;;;;19.88;13.38;;;;;;;12.47;84.33;100762.50;5020284;28;20064;-70
2022/05/05 06:50:50;;;;;;;17.08;12.95;;;;;;;12.81;83.65;100801.56;5020032;28;20050;-70
2022/05/05 06:53:18;;;;;;;27.30;15.68;;;;;;;12.83;83.16;100783.75;5021585;28;20058;-72
2022/05/05 06:55:45;;;;;;;24.42;12.57;;;;;;;13.06;80.91;100803.00;5019993;28;20112;-75
2022/05/05 06:58:11;;;;;;;24.63;14.23;;;;;;;13.16;79.79;100801.63;5024832;28;20061;-72
2022/05/05 07:03:24;;;;;;;16.27;11.95;;;;;;;13.46;76.80;100800.03;5021428;28;20053;-72
2022/05/05 07:05:52;;;;;;;21.63;11.52;;;;;;;13.57;75.25;100802.97;5038830;28;20169;-71
2022/05/05 07:08:19;;;;;;;15.95;10.77;;;;;;;13.62;73.51;100792.97;5023537;28;20049;-70
2022/05/05 07:10:54;;;;;;;19.42;11.80;;;;;;;13.75;73.69;100792.28;5037035;28;20049;-68
2022/05/05 07:13:25;;;;;;;16.33;12.35;;;;;;;13.83;73.76;100795.41;5035647;28;20391;-70
2022/05/05 07:15:52;;;;;;;16.90;11.40;;;;;;;13.75;72.92;100789.63;5036127;28;20049;-70
2022/05/05 07:18:18;;;;;;;17.05;11.60;;;;;;;13.86;73.94;100812.06;5035433;28;20072;-69
2022/05/05 07:20:45;;;;;;;19.40;12.02;;;;;;;13.83;73.84;100809.59;5035060;28;20072;-70
2022/05/05 07:23:12;;;;;;;19.88;11.38;;;;;;;13.83;71.51;100808.72;5030653;28;20052;-72
2022/05/05 07:25:41;;;;;;;15.55;10.60;;;;;;;13.63;71.22;100792.03;5035861;28;20064;-73
2022/05/05 07:28:08;;;;;;;16.60;10.45;;;;;;;13.76;71.77;100818.84;5026909;28;20128;-71
2022/05/05 07:30:36;;;;;;;16.95;11.10;;;;;;;13.71;73.16;100799.56;5026777;28;20045;-75
2022/05/05 07:33:05;;;;;;;21.95;11.80;;;;;;;13.84;72.90;100821.09;5033744;28;20053;-74
2022/05/05 07:35:32;;;;;;;14.25;9.90;;;;;;;13.91;72.91;100826.00;5040777;28;20131;-70
2022/05/05 07:37:59;;;;;;;16.00;11.18;;;;;;;13.80;73.45;100800.91;5041459;28;20049;-70
2022/05/05 07:40:28;;;;;;;16.23;11.05;;;;;;;13.90;72.60;100834.06;5040831;28;20045;-70
2022/05/05 07:42:55;;;;;;;19.10;11.73;;;;;;;13.87;72.39;100823.56;5044015;28;20099;-70
2022/05/05 07:45:22;;;;;;;18.45;11.32;;;;;;;13.83;71.92;100822.03;5041475;28;20541;-72
2022/05/05 07:47:49;;;;;;;15.43;11.30;;;;;;;13.65;72.91;100792.81;5040623;28;20041;-70
2022/05/05 07:50:16;;;;;;;19.92;11.25;;;;;;;13.80;73.32;100806.22;5041642;28;20444;-72
2022/05/05 07:52:43;;;;;;;17.20;11.07;;;;;;;13.90;73.37;100807.44;5047325;28;20041;-70
2022/05/05 07:55:10;;;;;;;17.25;11.20;;;;;;;14.06;71.94;100829.63;5043168;28;20064;-75
2022/05/05 07:57:57;;;;;;;14.35;11.02;;;;;;;14.12;72.17;100831.97;5040351;28;20095;-72
2022/05/05 08:00:24;;;;;;;18.90;12.88;;;;;;;14.19;73.24;100827.16;5042632;28;20049;-70
2022/05/05 08:02:51;;;;;;;18.88;12.50;;;;;;;14.22;74.18;100830.50;5040319;28;20084;-70
2022/05/05 08:05:17;;;;;;;18.10;11.77;;;;;;;14.31;73.14;100834.50;5029060;28;20049;-70
2022/05/05 08:07:45;;;;;;;21.15;12.02;;;;;;;14.32;72.69;100826.38;5046115;28;20048;-69
2022/05/05 08:10:13;;;;;;;17.23;11.63;;;;;;;14.53;71.94;100851.00;5047044;28;20448;-70
2022/05/05 08:12:40;;;;;;;20.92;11.88;;;;;;;14.52;71.76;100840.44;5040559;28;20049;-68
2022/05/05 08:15:08;;;;;;;17.58;10.75;;;;;;;14.52;70.83;100854.63;5043149;28;20489;-69
2022/05/05 08:17:34;;;;;;;17.42;11.93;;;;;;;14.49;71.23;100848.59;5029175;28;20128;-72
2022/05/05 08:20:03;;;;;;;15.63;11.40;;;;;;;14.52;70.58;100856.44;5039829;28;20060;-70
2022/05/05 08:22:30;;;;;;;17.73;11.35;;;;;;;14.58;70.82;100864.09;5040865;28;20111;-75
2022/05/05 08:30:28;;;;;;;16.75;11.55;;;;;;;14.61;68.68;100863.94;5033280;28;20049;-70
2022/05/05 08:32:54;;;;;;;17.13;11.75;;;;;;;14.51;69.76;100854.72;5045301;28;20072;-69
2022/05/05 08:35:22;;;;;;;16.80;11.73;;;;;;;14.65;70.17;100876.97;5037955;28;20048;-71
2022/05/05 08:37:50;;;;;;;17.05;11.93;;;;;;;14.63;69.97;100872.69;5044942;28;20049;-70
2022/05/05 08:40:17;;;;;;;16.48;11.23;;;;;;;14.55;70.54;100854.47;5046485;28;20071;-72
2022/05/05 08:42:44;;;;;;;18.35;12.80;;;;;;;14.58;71.39;100877.41;5045488;28;20052;-70
2022/05/05 08:45:11;;;;;;;17.95;11.98;;;;;;;14.56;70.02;100879.31;5041295;28;20060;-70
2022/05/05 08:47:40;;;;;;;18.73;11.43;;;;;;;14.51;71.06;100862.69;5049166;28;20045;-69
2022/05/05 08:50:11;;;;;;;19.70;12.10;;;;;;;14.64;72.25;100877.06;5040055;28;20051;-70
2022/05/05 08:52:49;;;;;;;17.27;12.02;;;;;;;14.66;72.11;100873.34;5040105;28;20102;-69
2022/05/05 08:55:20;;;;;;;16.55;11.70;;;;;;;14.74;70.44;100878.28;5041795;28;20508;-71
2022/05/05 08:57:47;;;;;;;20.23;13.05;;;;;;;14.80;70.17;100880.56;5043789;28;20056;-71
2022/05/05 09:00:15;;;;;;;16.40;11.88;;;;;;;14.82;68.77;100868.03;5046557;28;20083;-69
2022/05/05 09:02:43;;;;;;;21.60;12.10;;;;;;;15.00;69.17;100888.31;5046547;28;20139;-69
2022/05/05 09:05:10;;;;;;;16.88;11.68;;;;;;;15.05;67.69;100872.06;5036777;28;20056;-79
2022/05/05 09:07:50;;;;;;;17.13;11.23;;;;;;;15.34;68.40;100886.34;5040885;28;20041;-71
2022/05/05 09:10:19;;;;;;;16.55;11.40;;;;;;;15.52;65.69;100895.94;5043237;28;20041;-73
2022/05/05 09:12:57;;;;;;;18.00;11.77;;;;;;;15.59;66.01;100875.09;5042086;28;20478;-70
2022/05/05 09:15:32;;;;;;;18.13;11.18;;;;;;;15.86;65.09;100886.78;5042858;28;20076;-70
2022/05/05 09:18:29;;;;;;;20.08;11.88;;;;;;;16.07;62.87;100890.81;5035771;28;20075;-70
2022/05/05 09:20:57;;;;;;;13.73;10.40;;;;;;;16.20;61.99;100890.06;5047647;28;20165;-70
2022/05/05 09:24:34;;;;;;;15.68;11.27;;;;;;;16.37;62.76;100892.53;5037646;28;20055;-71
2022/05/05 09:26:30;;;;;;;21.30;14.15;;;;;;;16.54;62.34;100896.78;5035425;28;20158;-71
2022/05/05 09:28:58;;;;;;;18.35;12.10;;;;;;;16.44;63.51;100873.31;5040529;28;20048;-70
2022/05/05 09:31:25;;;;;;;16.98;11.60;;;;;;;16.45;61.37;100893.75;5038341;28;20089;-71
2022/05/05 09:33:52;;;;;;;18.42;11.98;;;;;;;16.15;61.75;100874.31;5043496;28;20045;-71
2022/05/05 09:36:27;;;;;;;16.92;11.68;;;;;;;16.20;63.04;100903.41;5042681;28;20053;-69
2022/05/05 09:38:56;;;;;;;18.38;11.65;;;;;;;16.05;63.08;100892.72;5041687;28;20049;-70
2022/05/05 09:41:25;;;;;;;19.13;11.95;;;;;;;16.07;64.38;100909.50;5039648;28;20175;-72
2022/05/05 09:43:56;;;;;;;18.73;12.57;;;;;;;16.15;63.43;100893.00;5038268;28;20058;-69
2022/05/05 09:46:23;;;;;;;17.17;11.90;;;;;;;16.35;64.13;100899.78;5046362;28;20084;-71
2022/05/05 09:48:50;;;;;;;18.15;11.85;;;;;;;16.61;61.88;100890.97;5037474;28;20119;-73
2022/05/05 09:51:17;;;;;;;17.38;12.18;;;;;;;16.76;60.33;100889.16;5020108;28;20048;-69
2022/05/05 09:57:40;;;;;;;19.45;12.00;;;;;;;17.03;60.39;100878.44;5036825;28;20421;-70
2022/05/05 09:59:40;;;;;;;15.35;11.15;;;;;;;17.44;58.61;100913.19;5036702;28;20052;-76
2022/05/05 10:02:16;;;;;;;16.15;11.50;;;;;;;17.59;56.81;100917.50;5042729;28;20052;-70
2022/05/05 10:04:49;;;;;;;17.42;11.55;;;;;;;17.42;57.51;100918.63;5040564;28;20049;-76
2022/05/05 10:07:19;;;;;;;18.10;11.68;;;;;;;17.54;57.93;100907.09;5021836;28;20132;-73
2022/05/05 10:09:48;;;;;;;18.57;11.13;;;;;;;17.59;57.26;100873.78;5040159;28;20176;-70
2022/05/05 10:12:16;;;;;;;20.08;11.73;;;;;;;17.80;55.00;100896.44;5043079;28;20057;-72
2022/05/05 10:14:43;;;;;;;16.75;11.85;;;;;;;17.85;54.24;100916.59;5042524;28;20111;-72
2022/05/05 10:17:14;;;;;;;22.52;12.30;;;;;;;17.46;55.19;100892.53;5039813;28;20052;-76
2022/05/05 10:19:42;;;;;;;;;;;;;;;17.47;54.68;100921.84;5036200;28;20047;-72
2022/05/05 10:22:18;;;;;;;19.20;11.18;;;;;;;17.36;55.12;100891.41;5025115;28;20303;-74
2022/05/05 10:24:58;;;;;;;18.67;11.50;;;;;;;17.51;55.54;100911.78;5040848;28;20056;-72
2022/05/05 10:27:25;;;;;;;16.63;10.85;;;;;;;17.52;56.78;100914.38;5033156;28;20486;-73
2022/05/05 10:29:52;;;;;;;17.50;11.45;;;;;;;17.57;55.72;100906.03;5040214;28;20111;-73
2022/05/05 10:32:21;;;;;;;16.55;10.45;;;;;;;17.39;54.73;100884.03;5042262;28;20382;-70
2022/05/05 10:34:53;;;;;;;16.95;10.65;;;;;;;17.57;55.94;100906.03;5042518;28;20118;-71
2022/05/05 10:37:30;;;;;;;20.02;12.05;;;;;;;17.49;55.12;100903.84;5022362;28;20072;-73
2022/05/05 10:39:57;;;;;;;14.35;10.80;;;;;;;17.54;56.55;100900.88;5022477;28;20382;-73
2022/05/05 10:42:31;;;;;;;16.35;11.02;;;;;;;17.65;54.46;100893.00;5038360;28;20060;-71
2022/05/05 10:45:24;;;;;;;16.95;11.48;;;;;;;17.72;54.83;100904.16;5040943;28;20566;-74
2022/05/05 10:47:55;;;;;;;16.38;11.18;;;;;;;17.74;55.44;100905.78;5029584;28;20091;-71
2022/05/05 10:53:45;;;;;;;17.55;11.85;;;;;;;17.22;57.20;100905.72;5040281;28;20378;-71
2022/05/05 10:56:23;;;;;;;18.60;12.35;;;;;;;17.06;57.04;100905.00;5034001;28;20061;-71
2022/05/05 10:59:04;;;;;;;18.52;12.55;;;;;;;16.87;57.29;100889.31;5036503;28;20200;-72
2022/05/05 11:01:53;;;;;;;17.58;11.02;;;;;;;16.86;57.77;100897.44;5043963;28;20072;-69
2022/05/05 11:04:24;;;;;;;19.87;13.03;;;;;;;16.83;59.00;100894.00;5033647;28;20064;-73
2022/05/05 11:07:19;;;;;;;18.77;12.05;;;;;;;16.82;59.34;100894.97;5041541;28;20045;-71
2022/05/05 11:09:46;;;;;;;15.98;11.52;;;;;;;16.67;56.44;100881.72;5020302;28;20053;-74
2022/05/05 11:12:14;;;;;;;18.73;11.10;;;;;;;16.70;56.20;100900.22;5045299;28;20052;-71
2022/05/05 11:23:45;;;;;;;17.83;11.63;;;;;;;16.73;57.19;100900.03;5040631;28;21380;-71
2022/05/05 11:26:16;;;;;;;18.70;11.30;;;;;;;16.89;54.38;100906.13;5041230;28;20128;-71
2022/05/05 11:28:43;;;;;;;16.95;10.80;;;;;;;17.10;54.70;100903.84;5042788;28;20413;-73
2022/05/05 11:31:24;;;;;;;19.23;10.85;;;;;;;17.26;54.79;100891.19;5038929;28;20094;-75
2022/05/05 11:33:58;;;;;;;17.02;11.63;;;;;;;17.58;53.81;100907.75;5043291;28;20130;-72
2022/05/05 11:36:37;;;;;;;20.50;11.15;;;;;;;17.81;53.38;100904.38;5041225;28;20041;-69
2022/05/05 11:39:06;;;;;;;15.52;10.60;;;;;;;18.25;52.76;100888.84;5045197;28;21966;-70
2022/05/05 11:41:34;;;;;;;20.15;10.77;;;;;;;18.74;50.74;100894.22;5044196;28;20102;-73
2022/05/05 11:44:17;;;;;;;14.07;9.93;;;;;;;18.98;48.70;100903.19;5045320;28;20095;-74
2022/05/05 11:46:45;;;;;;;16.58;10.82;;;;;;;18.97;47.31;100882.66;5046182;28;20049;-74
2022/05/05 11:49:12;;;;;;;19.95;10.18;;;;;;;19.26;47.46;100899.28;5042404;28;20041;-72
2022/05/05 11:51:39;;;;;;;13.95;9.27;;;;;;;19.57;46.78;100885.28;5041796;28;20049;-73